METAR Data
IDs: Format: Raw Decoded Include TAF

Data at: 0240 UTC 25 Jan 2020

PATQ 250056Z AUTO 24010KT 7SM CLR M36/ A3033 RMK AO2 SNB26E36 SLP277 P0000 T1356 FZRANO TSNO
PATQ 242356Z AUTO 24012KT 10SM CLR M36/ A3033 RMK AO2 SLP277 T1361 11339 21361 58005 FZRANO TSNO
PATQ 242256Z AUTO 22009KT 10SM CLR M36/ A3034 RMK AO2 SLP280 T1356 FZRANO TSNO
PATQ 242056Z AUTO 23010KT 7SM CLR M36/ A3034 RMK AO2 SLP282 T1361 53005 FZRANO TSNO
PATQ 241956Z AUTO 23009KT 10SM CLR M35/ A3033 RMK AO2 SLP278 T1350 FZRANO TSNO
PATQ 241856Z AUTO 25010KT 9SM CLR M34/ A3033 RMK AO2 SLP277 T1344 FZRANO TSNO
PATQ 241656Z AUTO 24009KT 10SM CLR M34/M37 A3033 RMK AO2 SLP278 T13391372 FZRANO TSNO
PATQ 241556Z AUTO 24009KT 10SM CLR M33/M37 A3033 RMK AO2 SLP277 T13331367 FZRANO TSNO
PATQ 241456Z AUTO 23011KT 10SM CLR M33/M36 A3033 RMK AO2 SLP277 T13281356 53004 FZRANO TSNO
PATQ 241256Z AUTO 24010KT 10SM FEW085 M31/M34 A3032 RMK AO2 SLP275 T13111339 FZRANO TSNO
PATQ 241156Z AUTO 26010KT 10SM BKN085 M30/M33 A3031 RMK AO2 SLP273 60000 T13001328 11261 21306 51009 FZRANO TSNO
PATQ 241056Z AUTO 25011KT 10SM CLR M29/M32 A3030 RMK AO2 SLP269 T12941322 FZRANO TSNO
PATQ 240956Z AUTO 26007KT 10SM CLR M28/M31 A3030 RMK AO2 SNB00E26 SLP269 P0000 T12831311 FZRANO TSNO
PATQ 240856Z AUTO 28006KT 10SM BKN090 M27/M29 A3029 RMK AO2 SNE49 SLP263 P0000 60000 T12671294 412611300 51014 FZRANO TSNO
PATQ 240756Z AUTO 25006KT 9SM -SN OVC090 M27/M29 A3028 RMK AO2 SLP260 P0000 T12671294 FZRANO TSNO
PATQ 240656Z AUTO 27006KT 9SM -SN OVC090 M27/M29 A3026 RMK AO2 SLP254 P0000 T12671289 FZRANO TSNO
PATQ 240456Z AUTO 28006KT 7SM -SN FEW039 SCT050 OVC095 M27/M29 A3023 RMK AO2 SLP246 P0000 T12671294 FZRANO TSNO
PATQ 240356Z AUTO 28007KT 5SM -SN BKN050 OVC095 M26/M29 A3022 RMK AO2 SLP241 P0000 T12611289 FZRANO TSNO
PATQ 240056Z AUTO 28007KT 6SM -SN BR OVC055 M27/M29 A3017 RMK AO2 SLP223 P0000 T12671289 FZRANO TSNO
PATQ 232356Z AUTO 27007KT 9SM -SN OVC055 M28/M31 A3015 RMK AO2 SLP218 P0000 60000 T12781306 11261 21289 51014 FZRANO TSNO
PATQ 232256Z AUTO 27007KT 9SM -SN FEW100 M28/M31 A3014 RMK AO2 SLP214 P0000 T12831311 FZRANO TSNO
PATQ 232114Z AUTO 27007KT 3SM -SN SCT014 SCT100 M27/M29 A3012 RMK AO2 P0000 FZRANO TSNO
PATQ 232056Z AUTO 28007KT 9SM -SN SCT013 BKN017 OVC033 M27/M29 A3011 RMK AO2 SNB1957 SLP204 P0000 60000 T12671289 53023 FZRANO TSNO
PATQ 232036Z AUTO 27007KT 3SM -SN FEW007 BKN027 OVC034 M26/M29 A3011 RMK AO2 SNB1957 P0000 FZRANO TSNO
PATQ 232025Z AUTO 27007KT 1 3/4SM -SN FEW007 BKN023 OVC030 M26/M29 A3010 RMK AO2 SNB1957 P0000 FZRANO TSNO
PATQ 232021Z AUTO 27007KT 2 1/2SM -SN FEW012 BKN023 OVC030 M26/M29 A3010 RMK AO2 SNB1957 P0000 FZRANO TSNO
PATQ 232016Z AUTO 27007KT 3SM -SN FEW021 BKN030 OVC036 M26/M29 A3010 RMK AO2 SNB1957 P0000 FZRANO TSNO
PATQ 232007Z AUTO 28007KT 5SM -SN SCT023 BKN028 OVC042 M26/M29 A3009 RMK AO2 SNB1957 P0000 FZRANO TSNO
PATQ 231956Z AUTO 28007KT 9SM SCT028 BKN037 OVC055 M26/M29 A3009 RMK AO2 SNE55 SLP195 P0000 T12611289 FZRANO TSNO
PATQ 231937Z AUTO 27006KT 9SM -SN FEW017 BKN030 OVC055 M26/M28 A3008 RMK AO2 P0000 FZRANO TSNO
PATQ 231929Z AUTO 28006KT 8SM -SN FEW019 BKN024 OVC033 M26/M28 A3008 RMK AO2 P0000 FZRANO TSNO
PATQ 231856Z AUTO 27006KT 8SM -SN BKN049 BKN055 OVC075 M26/M28 A3006 RMK AO2 SLP188 P0000 T12611283 FZRANO TSNO
PATQ 231756Z AUTO 28006KT 8SM -SN OVC070 M27/M29 A3004 RMK AO2 SNB1659 SLP181 P0000 60000 T12721294 11272 21300 53017 FZRANO TSNO
PATQ 231556Z AUTO 25006KT 9SM OVC070 M29/M31 A3001 RMK AO2 SLP169 T12891311 FZRANO TSNO
PATQ 231456Z AUTO 25008KT 8SM BKN070 M30/M32 A2999 RMK AO2 SLP164 T13001322 53017 FZRANO TSNO